Time;durP1;ratioP1;P1;durP2;ratioP2;P2;SDS_P1;SDS_P2;PMS_P1;PMS_P2;Temp;Humidity;BMP_temperature;BMP_pressure;BME280_temperature;BME280_humidity;BME280_pressure;Samples;Min_cycle;Max_cycle;Signal;HPM_P1;HPM_P2
2024/02/28 00:00:29;;;;;;;;;;;;;;;10.92;51.07;100854.09;4982684;27;98495;-70
2024/02/28 00:02:55;;;;;;;;;;;;;;;10.91;50.86;100858.69;4983244;27;111922;-70
2024/02/28 00:05:21;;;;;;;;;;;;;;;10.91;51.11;100847.88;4983735;27;99011;-70
2024/02/28 00:07:47;;;;;;;;;;;;;;;10.91;51.01;100857.88;4996882;27;117979;-70
2024/02/28 00:10:13;;;;;;;;;;;;;;;10.89;51.46;100852.75;4996463;27;98360;-70
2024/02/28 00:12:40;;;;;;;;;;;;;;;10.90;50.85;100853.56;4999682;27;98054;-70
2024/02/28 00:15:10;;;;;;;;;;;;;;;10.89;51.50;100855.44;4987404;27;98450;-70
2024/02/28 00:17:38;;;;;;;;;;;;;;;10.90;51.20;100864.34;5001608;27;98122;-70
2024/02/28 00:20:04;;;;;;;;;;;;;;;10.89;51.29;100868.94;4994337;27;114258;-70
2024/02/28 00:22:30;;;;;;;;;;;;;;;10.89;50.97;100868.13;5000801;27;98152;-70
2024/02/28 00:24:56;;;;;;;;;;;;;;;10.89;51.32;100860.84;4951150;27;99731;-70
2024/02/28 00:27:22;;;;;;;;;;;;;;;10.89;51.26;100857.34;4996110;27;118329;-70
2024/02/28 00:29:48;;;;;;;;;;;;;;;10.89;50.96;100851.94;4989469;27;127183;-69
2024/02/28 00:32:14;;;;;;;;;;;;;;;10.89;50.84;100860.84;4972051;27;118377;-70
2024/02/28 00:34:40;;;;;;;;;;;;;;;10.88;51.29;100864.59;4962483;27;128027;-69
2024/02/28 00:37:06;;;;;;;;;;;;;;;10.88;50.82;100853.78;4997755;27;99730;-69
2024/02/28 00:39:32;;;;;;;;;;;;;;;10.88;51.10;100866.47;4981183;27;128349;-69
2024/02/28 00:41:58;;;;;;;;;;;;;;;10.88;50.85;100864.59;5005404;27;98155;-69
2024/02/28 00:44:24;;;;;;;;;;;;;;;10.88;51.13;100858.38;4977329;27;98574;-69
2024/02/28 00:46:50;;;;;;;;;;;;;;;10.88;51.31;100861.88;4961791;27;99935;-69
2024/02/28 00:49:16;;;;;;;;;;;;;;;10.87;50.96;100856.75;4997528;27;129878;-69
2024/02/28 00:51:42;;;;;;;;;;;;;;;10.88;50.95;100855.69;4982175;27;119306;-69
2024/02/28 00:54:08;;;;;;;;;;;;;;;10.88;51.00;100852.97;4966460;27;98551;-69
2024/02/28 00:56:34;;;;;;;;;;;;;;;10.87;50.94;100864.84;4999666;27;104433;-69
2024/02/28 00:59:00;;;;;;;;;;;;;;;10.86;51.04;100861.34;4998866;27;100638;-70
2024/02/28 01:01:26;;;;;;;;;;;;;;;10.86;51.41;100861.34;5001934;27;119885;-70
2024/02/28 01:03:52;;;;;;;;;;;;;;;10.86;50.97;100861.34;4983899;27;100222;-69
2024/02/28 01:06:18;;;;;;;;;;;;;;;10.86;51.17;100861.34;4960258;27;98935;-70
2024/02/28 01:08:44;;;;;;;;;;;;;;;10.86;51.47;100855.16;5002604;27;99033;-70
2024/02/28 01:11:10;;;;;;;;;;;;;;;10.85;51.34;100859.72;4986531;27;97976;-69
2024/02/28 01:13:36;;;;;;;;;;;;;;;10.85;51.03;100857.03;4995669;27;98087;-70
2024/02/28 01:16:02;;;;;;;;;;;;;;;10.85;51.30;100856.22;5012078;27;128380;-69
2024/02/28 01:18:30;;;;;;;;;;;;;;;10.85;51.15;100862.44;4986546;27;115693;-69
2024/02/28 01:20:56;;;;;;;;;;;;;;;10.84;50.95;100858.09;4998451;27;97995;-70
2024/02/28 01:23:22;;;;;;;;;;;;;;;10.85;51.11;100864.31;4978467;27;100576;-69
2024/02/28 01:25:48;;;;;;;;;;;;;;;10.86;51.40;100863.25;4980749;27;98282;-70
2024/02/28 01:28:14;;;;;;;;;;;;;;;10.84;51.33;100866.16;4961078;27;103116;-69
2024/02/28 01:30:40;;;;;;;;;;;;;;;10.85;51.02;100853.53;4994093;27;108809;-69
2024/02/28 01:33:06;;;;;;;;;;;;;;;10.85;51.04;100861.63;4997701;27;98416;-69
2024/02/28 01:35:32;;;;;;;;;;;;;;;10.85;51.34;100861.63;4963202;27;100630;-69
2024/02/28 01:37:58;;;;;;;;;;;;;;;10.84;51.30;100858.09;4970748;27;99453;-70
2024/02/28 01:40:24;;;;;;;;;;;;;;;10.84;51.38;100855.38;4997166;27;98802;-69
2024/02/28 01:42:51;;;;;;;;;;;;;;;10.85;51.37;100861.63;4951116;27;107595;-69
2024/02/28 01:45:17;;;;;;;;;;;;;;;10.83;51.02;100853.78;4981931;27;98248;-69
2024/02/28 01:47:43;;;;;;;;;;;;;;;10.84;51.21;100857.28;4980459;27;127082;-69
2024/02/28 01:50:09;;;;;;;;;;;;;;;10.85;51.09;100853.53;4951124;27;98238;-70
2024/02/28 01:52:39;;;;;;;;;;;;;;;10.84;51.02;100852.69;4983854;27;98262;-69
2024/02/28 01:55:06;;;;;;;;;;;;;;;10.84;51.03;100860.78;4953240;27;99200;-69
2024/02/28 01:57:32;;;;;;;;;;;;;;;10.84;51.41;100855.38;4968320;27;104320;-69
2024/02/28 01:59:58;;;;;;;;;;;;;;;10.84;51.09;100858.09;4976383;27;98130;-69
2024/02/28 02:02:24;;;;;;;;;;;;;;;10.85;51.09;100850.84;4983483;27;120670;-69
2024/02/28 02:04:52;;;;;;;;;;;;;;;10.84;51.31;100846.47;4977376;27;121010;-69
2024/02/28 02:07:19;;;;;;;;;;;;;;;10.84;51.57;100852.69;4994820;27;98042;-69
2024/02/28 02:09:46;;;;;;;;;;;;;;;10.83;51.15;100859.16;4979612;27;98629;-69
2024/02/28 02:12:12;;;;;;;;;;;;;;;10.85;51.28;100867.00;4995282;27;98020;-69
2024/02/28 02:14:38;;;;;;;;;;;;;;;10.83;50.99;100859.16;4967676;27;98516;-70
2024/02/28 02:17:04;;;;;;;;;;;;;;;10.83;51.26;100856.47;4996746;27;125783;-70
2024/02/28 02:19:30;;;;;;;;;;;;;;;10.84;51.41;100859.97;4979477;27;99334;-70
2024/02/28 02:21:58;;;;;;;;;;;;;;;10.83;51.18;100853.78;4998990;27;98659;-69
2024/02/28 02:24:24;;;;;;;;;;;;;;;10.82;51.33;100852.97;4978380;27;98317;-69
2024/02/28 02:26:54;;;;;;;;;;;;;;;10.84;51.07;100846.47;4998005;27;103488;-70
2024/02/28 02:29:20;;;;;;;;;;;;;;;10.81;51.33;100851.34;4969181;27;98801;-69
2024/02/28 02:31:46;;;;;;;;;;;;;;;10.83;51.10;100848.38;4997746;27;131655;-70
2024/02/28 02:34:12;;;;;;;;;;;;;;;10.83;51.13;100851.06;4967393;27;98605;-70
2024/02/28 02:36:38;;;;;;;;;;;;;;;10.83;51.11;100845.69;4947155;27;98525;-69
2024/02/28 02:39:04;;;;;;;;;;;;;;;10.84;51.26;100846.47;4965892;27;105086;-69
2024/02/28 02:41:30;;;;;;;;;;;;;;;10.83;51.43;100853.78;4996384;27;126249;-69
2024/02/28 02:43:57;;;;;;;;;;;;;;;10.84;51.38;100850.00;4991380;27;100185;-70
2024/02/28 02:46:24;;;;;;;;;;;;;;;10.84;51.54;100846.47;4992777;27;98684;-70
2024/02/28 02:48:49;;;;;;;;;;;;;;;10.83;51.38;100853.78;4978608;27;98365;-69
2024/02/28 02:51:17;;;;;;;;;;;;;;;10.83;51.45;100842.97;4997096;27;128496;-69
2024/02/28 02:53:43;;;;;;;;;;;;;;;10.82;51.28;100849.47;4981910;27;98075;-69
2024/02/28 02:56:09;;;;;;;;;;;;;;;10.82;51.14;100847.56;4969941;27;129344;-70
2024/02/28 02:58:35;;;;;;;;;;;;;;;10.82;51.13;100846.75;4979036;27;98257;-69
2024/02/28 03:01:01;;;;;;;;;;;;;;;10.81;51.09;100854.03;4979676;27;99857;-70
2024/02/28 03:03:27;;;;;;;;;;;;;;;10.81;51.30;100853.22;4963528;27;98195;-69
2024/02/28 03:05:53;;;;;;;;;;;;;;;10.80;51.03;100849.69;4962467;27;124386;-69
2024/02/28 03:08:19;;;;;;;;;;;;;;;10.81;51.38;100854.03;4994366;27;98632;-69
2024/02/28 03:10:45;;;;;;;;;;;;;;;10.80;50.98;100857.78;4997456;27;98944;-70
2024/02/28 03:13:11;;;;;;;;;;;;;;;10.80;51.18;100865.06;4977421;27;128045;-69
2024/02/28 03:15:37;;;;;;;;;;;;;;;10.80;51.38;100862.38;4975071;27;98907;-70
2024/02/28 03:18:04;;;;;;;;;;;;;;;10.79;51.55;100872.34;5001932;27;98378;-69
2024/02/28 03:20:32;;;;;;;;;;;;;;;10.79;51.10;100875.03;4999960;27;119474;-69
2024/02/28 03:22:58;;;;;;;;;;;;;;;10.79;50.85;100872.34;5006396;27;98169;-69
2024/02/28 03:25:24;;;;;;;;;;;;;;;10.79;51.01;100883.13;4987975;27;98227;-70
2024/02/28 03:27:50;;;;;;;;;;;;;;;10.78;51.18;100883.41;4987378;27;98378;-69
2024/02/28 03:30:16;;;;;;;;;;;;;;;10.78;50.95;100880.72;4991015;27;130054;-70
2024/02/28 03:32:42;;;;;;;;;;;;;;;10.77;51.25;100881.78;5003629;27;104945;-70
2024/02/28 03:35:08;;;;;;;;;;;;;;;10.77;50.91;100885.28;5005099;27;103105;-70
2024/02/28 03:37:34;;;;;;;;;;;;;;;10.77;51.04;100884.47;4982807;27;98195;-69
2024/02/28 03:40:00;;;;;;;;;;;;;;;10.76;51.28;100890.94;4998094;27;99712;-69
2024/02/28 03:42:26;;;;;;;;;;;;;;;10.75;51.48;100892.00;4997177;27;100399;-70
2024/02/28 03:44:52;;;;;;;;;;;;;;;10.75;51.52;100886.63;4977815;27;99076;-69
2024/02/28 03:47:18;;;;;;;;;;;;;;;10.75;51.53;100895.50;4986759;27;98214;-69
2024/02/28 03:49:44;;;;;;;;;;;;;;;10.74;51.54;100899.28;4981304;27;98105;-70
2024/02/28 03:52:10;;;;;;;;;;;;;;;10.74;51.05;100901.97;4996509;27;118733;-70
2024/02/28 03:54:37;;;;;;;;;;;;;;;10.73;51.56;100911.16;5001151;27;105198;-69
2024/02/28 03:57:03;;;;;;;;;;;;;;;10.74;51.54;100911.97;5015301;27;100139;-70
2024/02/28 03:59:29;;;;;;;;;;;;;;;10.70;51.22;100908.97;5002359;27;99635;-69
2024/02/28 04:01:55;;;;;;;;;;;;;;;10.72;51.27;100916.78;4978893;27;99236;-70
2024/02/28 04:04:21;;;;;;;;;;;;;;;10.71;51.46;100915.16;4978687;27;127053;-69
2024/02/28 04:06:47;;;;;;;;;;;;;;;10.72;51.44;100924.88;4983470;27;99109;-70
2024/02/28 04:09:13;;;;;;;;;;;;;;;10.71;51.67;100921.38;4979293;27;126694;-69
2024/02/28 04:11:39;;;;;;;;;;;;;;;10.69;50.93;100918.13;4996759;27;98747;-70
2024/02/28 04:14:05;;;;;;;;;;;;;;;10.70;51.46;100930.53;5003494;27;98119;-70
2024/02/28 04:16:31;;;;;;;;;;;;;;;10.69;51.35;100934.31;4995962;27;117491;-69
2024/02/28 04:18:56;;;;;;;;;;;;;;;10.69;51.25;100938.84;4977379;27;117945;-70
2024/02/28 04:21:22;;;;;;;;;;;;;;;10.69;51.27;100950.47;4963494;27;114371;-70
2024/02/28 04:23:48;;;;;;;;;;;;;;;10.68;51.07;100946.13;4972830;27;126954;-70
2024/02/28 04:26:14;;;;;;;;;;;;;;;10.69;51.23;100955.03;4979049;27;108364;-69
2024/02/28 04:28:42;;;;;;;;;;;;;;;10.68;51.24;100956.91;4958811;27;98345;-70
2024/02/28 04:31:09;;;;;;;;;;;;;;;10.69;51.18;100955.03;4990768;27;130005;-69
2024/02/28 04:33:35;;;;;;;;;;;;;;;10.68;51.13;100965.00;4964122;27;98387;-69
2024/02/28 04:36:02;;;;;;;;;;;;;;;10.68;51.40;100965.00;4995025;27;98116;-69
2024/02/28 04:38:27;;;;;;;;;;;;;;;10.69;51.38;100968.50;4979964;27;98231;-69
2024/02/28 04:40:53;;;;;;;;;;;;;;;10.69;51.17;100973.91;4989746;27;124046;-70
2024/02/28 04:43:20;;;;;;;;;;;;;;;10.67;51.50;100976.06;4972052;27;126910;-69
2024/02/28 04:45:45;;;;;;;;;;;;;;;10.68;51.22;100981.19;4966956;27;98174;-70
2024/02/28 04:48:11;;;;;;;;;;;;;;;10.67;51.50;100979.56;4978447;27;106892;-69
2024/02/28 04:50:37;;;;;;;;;;;;;;;10.68;51.48;100983.06;4985526;27;111141;-70
2024/02/28 04:53:03;;;;;;;;;;;;;;;10.68;51.75;100983.06;4977592;27;120767;-69
2024/02/28 04:55:29;;;;;;;;;;;;;;;10.67;51.28;100981.44;4977800;27;102247;-70
2024/02/28 04:57:55;;;;;;;;;;;;;;;10.68;51.71;100991.97;4957928;27;128326;-70
2024/02/28 05:00:21;;;;;;;;;;;;;;;10.67;51.14;100984.97;4948719;27;129444;-69
2024/02/28 05:02:47;;;;;;;;;;;;;;;10.67;51.22;100990.34;4978005;27;98347;-70
2024/02/28 05:05:13;;;;;;;;;;;;;;;10.67;51.72;100990.34;4976020;27;99419;-69
2024/02/28 05:07:39;;;;;;;;;;;;;;;10.67;51.20;100992.25;4980181;27;98309;-70
2024/02/28 05:10:06;;;;;;;;;;;;;;;10.66;51.40;100996.00;4984909;27;100407;-70
2024/02/28 05:12:32;;;;;;;;;;;;;;;10.66;51.05;101004.91;4951010;27;101305;-70
2024/02/28 05:14:58;;;;;;;;;;;;;;;10.66;51.47;101002.22;4966640;27;98380;-70
2024/02/28 05:17:25;;;;;;;;;;;;;;;10.66;51.05;101009.50;4998576;27;98842;-70
2024/02/28 05:19:50;;;;;;;;;;;;;;;10.66;51.33;101006.78;5003132;27;98369;-69
2024/02/28 05:22:16;;;;;;;;;;;;;;;10.65;50.97;101019.47;4973133;27;128414;-70
2024/02/28 05:24:43;;;;;;;;;;;;;;;10.65;51.32;101024.84;4992345;27;119982;-71
2024/02/28 05:27:10;;;;;;;;;;;;;;;10.65;51.33;101016.78;4993948;27;98928;-70
2024/02/28 05:29:36;;;;;;;;;;;;;;;10.64;51.45;101014.31;4976444;27;99574;-70
2024/02/28 05:32:02;;;;;;;;;;;;;;;10.64;51.51;101017.81;4959541;27;105495;-69
2024/02/28 05:34:27;;;;;;;;;;;;;;;10.63;51.48;101016.19;4994913;27;118536;-70
2024/02/28 05:36:53;;;;;;;;;;;;;;;10.63;51.05;101016.19;4971942;27;128315;-70
2024/02/28 05:39:20;;;;;;;;;;;;;;;10.63;51.56;101021.59;4994394;27;125925;-70
2024/02/28 05:41:46;;;;;;;;;;;;;;;10.64;51.22;101023.22;4967473;27;98961;-70
2024/02/28 05:44:12;;;;;;;;;;;;;;;10.63;51.45;101023.47;4944416;27;98673;-70
2024/02/28 05:46:38;;;;;;;;;;;;;;;10.61;51.37;101014.81;4993680;27;126766;-70
2024/02/28 05:49:05;;;;;;;;;;;;;;;10.61;51.46;101015.66;4997869;27;98291;-69
2024/02/28 05:51:31;;;;;;;;;;;;;;;10.62;51.23;101021.84;4973110;27;98519;-70
2024/02/28 05:53:57;;;;;;;;;;;;;;;10.60;51.23;101019.41;4961934;27;98244;-70
2024/02/28 05:56:22;;;;;;;;;;;;;;;10.60;51.12;101023.97;4992739;27;99526;-70
2024/02/28 05:58:48;;;;;;;;;;;;;;;10.59;51.45;101025.84;4974622;27;105440;-70
2024/02/28 06:01:18;;;;;;;;;;;;;;;10.59;51.07;101033.94;4995765;27;126933;-70
2024/02/28 06:03:50;;;;;;;;;;;;;;;10.58;51.83;101037.72;4982847;27;98186;-70
2024/02/28 06:06:17;;;;;;;;;;;;;;;10.59;51.17;101038.53;4966926;27;99516;-70
2024/02/28 06:08:43;;;;;;;;;;;;;;;10.57;51.07;101041.47;4980226;27;98294;-70
2024/02/28 06:11:09;;;;;;;;;;;;;;;10.59;51.81;101052.00;4994427;27;98182;-70
2024/02/28 06:13:35;;;;;;;;;;;;;;;10.57;51.42;101050.38;4978963;27;100653;-70
2024/02/28 06:16:02;;;;;;;;;;;;;;;10.57;51.53;101049.53;4979518;27;123422;-70
2024/02/28 06:18:30;;;;;;;;;;;;;;;10.56;51.39;101054.13;4994817;27;98010;-69
2024/02/28 06:20:56;;;;;;;;;;;;;;;10.56;51.51;101054.13;4993968;27;98564;-69
2024/02/28 06:23:22;;;;;;;;;;;;;;;10.55;51.52;101052.50;4979563;27;116942;-70
2024/02/28 06:25:48;;;;;;;;;;;;;;;10.56;51.24;101061.41;4995133;27;99647;-69
2024/02/28 06:28:14;;;;;;;;;;;;;;;10.55;51.59;101065.97;4994838;27;98180;-70
2024/02/28 06:30:40;;;;;;;;;;;;;;;10.55;51.50;101074.06;4982653;27;98153;-70
2024/02/28 06:33:08;;;;;;;;;;;;;;;10.55;51.21;101067.88;4970049;27;97996;-70
2024/02/28 06:35:34;;;;;;;;;;;;;;;10.55;51.19;101074.06;4965388;27;98056;-70
2024/02/28 06:38:00;;;;;;;;;;;;;;;10.55;51.81;101076.78;4993254;27;99029;-70
2024/02/28 06:40:28;;;;;;;;;;;;;;;10.55;51.03;101081.34;5009815;27;98016;-69
2024/02/28 06:42:54;;;;;;;;;;;;;;;10.54;51.38;101082.44;4996391;27;98093;-70
2024/02/28 06:45:20;;;;;;;;;;;;;;;10.56;51.24;101082.97;4996931;27;98719;-70
2024/02/28 06:47:46;;;;;;;;;;;;;;;10.56;51.69;101091.06;4996603;27;109579;-70
2024/02/28 06:50:12;;;;;;;;;;;;;;;10.57;51.27;101089.97;4963090;27;115440;-70
2024/02/28 06:52:38;;;;;;;;;;;;;;;10.57;51.33;101089.97;4984033;27;100874;-70
2024/02/28 06:55:09;;;;;;;;;;;;;;;10.57;51.22;101093.53;4965753;27;128138;-70
2024/02/28 06:57:39;;;;;;;;;;;;;;;10.57;51.10;101098.91;4980044;27;98396;-69
2024/02/28 07:00:08;;;;;;;;;;;;;;;10.59;51.50;101097.84;4981360;27;97957;-70
2024/02/28 07:02:36;;;;;;;;;;;;;;;10.59;51.62;101095.13;5002867;27;98416;-70
2024/02/28 07:05:04;;;;;;;;;;;;;;;10.59;51.55;101095.13;4995882;27;99192;-70
2024/02/28 07:07:31;;;;;;;;;;;;;;;10.60;50.96;101102.16;4968693;27;98832;-69
2024/02/28 07:09:57;;;;;;;;;;;;;;;10.59;51.18;101104.03;5000991;27;97924;-69
2024/02/28 07:12:24;;;;;;;;;;;;;;;10.60;51.66;101102.97;4982329;27;98442;-69
2024/02/28 07:14:50;;;;;;;;;;;;;;;10.61;50.93;101106.47;4983599;27;98406;-70
2024/02/28 07:17:16;;;;;;;;;;;;;;;10.61;51.58;101109.16;5009150;27;118623;-70
2024/02/28 07:19:42;;;;;;;;;;;;;;;10.62;51.42;101108.94;4948267;27;98168;-70
2024/02/28 07:22:09;;;;;;;;;;;;;;;10.63;51.19;101113.25;4995390;27;114382;-70
2024/02/28 07:24:35;;;;;;;;;;;;;;;10.63;51.35;101115.13;4961314;27;98054;-70
2024/02/28 07:27:01;;;;;;;;;;;;;;;10.63;51.64;101112.44;4962989;27;97939;-70
2024/02/28 07:29:27;;;;;;;;;;;;;;;10.65;51.44;101121.91;4982737;27;98130;-70
2024/02/28 07:31:53;;;;;;;;;;;;;;;10.66;51.20;101115.44;4990617;27;98342;-70
2024/02/28 07:34:19;;;;;;;;;;;;;;;10.68;51.42;101117.88;4991566;27;103145;-70
2024/02/28 07:36:45;;;;;;;;;;;;;;;10.69;51.34;101114.97;4990145;27;127957;-69
2024/02/28 07:39:12;;;;;;;;;;;;;;;10.72;51.12;101117.13;4995591;27;101625;-70
2024/02/28 07:41:41;;;;;;;;;;;;;;;10.75;51.37;101126.59;4991983;27;98461;-70
2024/02/28 07:44:08;;;;;;;;;;;;;;;10.77;51.37;101133.38;4992236;27;127414;-70
2024/02/28 07:46:34;;;;;;;;;;;;;;;10.79;50.85;101133.13;4947317;27;99929;-70
2024/02/28 07:49:01;;;;;;;;;;;;;;;10.80;51.29;101132.03;4955963;27;98167;-70
2024/02/28 07:51:28;;;;;;;;;;;;;;;10.82;51.06;101132.63;4997616;27;98026;-70
2024/02/28 07:53:54;;;;;;;;;;;;;;;10.82;50.84;101122.66;4969159;27;98288;-70
2024/02/28 07:56:20;;;;;;;;;;;;;;;10.84;51.08;101138.56;4962626;27;98125;-69
2024/02/28 07:58:46;;;;;;;;;;;;;;;10.84;51.25;101138.56;4961410;27;101937;-70
2024/02/28 08:01:12;;;;;;;;;;;;;;;10.86;51.03;101135.63;4966399;27;98043;-70
2024/02/28 08:03:38;;;;;;;;;;;;;;;10.86;51.55;101133.75;4981120;27;98327;-69
2024/02/28 08:06:04;;;;;;;;;;;;;;;10.89;51.32;101145.91;4992540;27;97922;-70
2024/02/28 08:08:30;;;;;;;;;;;;;;;10.89;51.55;101137.84;4980788;27;110655;-70
2024/02/28 08:10:57;;;;;;;;;;;;;;;10.92;51.29;101143.50;4983216;27;110302;-70
2024/02/28 08:13:23;;;;;;;;;;;;;;;10.93;50.97;101141.66;4991309;27;99440;-69
2024/02/28 08:15:49;;;;;;;;;;;;;;;10.95;51.27;101139.50;5004431;27;99513;-70
2024/02/28 08:18:15;;;;;;;;;;;;;;;10.99;51.46;101146.00;4984653;27;130818;-69
2024/02/28 08:20:41;;;;;;;;;;;;;;;11.04;50.89;101146.91;4998127;27;117743;-70
2024/02/28 08:23:07;;;;;;;;;;;;;;;11.06;51.33;101144.75;4982262;27;99856;-70
2024/02/28 08:25:33;;;;;;;;;;;;;;;11.12;51.18;101158.28;4998634;27;99939;-71
2024/02/28 08:27:59;;;;;;;;;;;;;;;11.16;50.96;101160.25;4992813;27;98261;-70
2024/02/28 08:30:25;;;;;;;;;;;;;;;11.22;51.22;101153.00;4979381;27;120795;-71
2024/02/28 08:32:51;;;;;;;;;;;;;;;11.25;51.18;101163.28;4984045;27;128450;-70
2024/02/28 08:35:18;;;;;;;;;;;;;;;11.23;51.09;101168.13;4996198;27;112556;-69
2024/02/28 08:37:44;;;;;;;;;;;;;;;11.23;51.11;101163.53;5000890;27;107069;-70
2024/02/28 08:40:11;;;;;;;;;;;;;;;11.29;51.09;101159.81;4993461;27;100160;-69
2024/02/28 08:42:37;;;;;;;;;;;;;;;11.39;50.77;101160.97;4980209;27;98249;-69
2024/02/28 08:45:03;;;;;;;;;;;;;;;11.40;51.05;101162.63;5000934;27;98013;-71
2024/02/28 08:47:29;;;;;;;;;;;;;;;11.40;51.07;101168.03;5013699;27;98348;-70
2024/02/28 08:49:55;;;;;;;;;;;;;;;11.38;51.05;101170.16;5002093;27;115918;-70
2024/02/28 08:52:21;;;;;;;;;;;;;;;11.38;50.88;101173.66;4983239;27;98308;-69
2024/02/28 08:54:48;;;;;;;;;;;;;;;11.38;51.17;101176.38;4982367;27;126381;-69
2024/02/28 08:57:14;;;;;;;;;;;;;;;11.38;51.32;101178.25;4975424;27;98296;-70
2024/02/28 08:59:40;;;;;;;;;;;;;;;11.37;50.96;101173.94;4997940;27;98073;-70
2024/02/28 09:02:07;;;;;;;;;;;;;;;11.36;51.13;101173.13;4979298;27;121335;-70
2024/02/28 09:04:33;;;;;;;;;;;;;;;11.37;51.03;101173.94;5008375;27;97982;-70
2024/02/28 09:06:59;;;;;;;;;;;;;;;11.37;51.21;101177.44;4975012;27;120062;-70
2024/02/28 09:09:25;;;;;;;;;;;;;;;11.37;50.98;101179.34;4987783;27;116996;-71
2024/02/28 09:11:51;;;;;;;;;;;;;;;11.39;50.97;101180.69;4986082;27;100270;-70
2024/02/28 09:14:17;;;;;;;;;;;;;;;11.42;51.19;101187.47;4998807;27;126196;-71
2024/02/28 09:16:43;;;;;;;;;;;;;;;11.43;51.20;101187.22;4996750;27;125788;-70
2024/02/28 09:19:09;;;;;;;;;;;;;;;11.44;51.10;101188.03;4969367;27;99106;-70
2024/02/28 09:21:35;;;;;;;;;;;;;;;11.46;51.16;101189.41;4962286;27;100027;-70
2024/02/28 09:24:02;;;;;;;;;;;;;;;11.48;51.29;101191.88;4985707;27;98301;-71
2024/02/28 09:26:27;;;;;;;;;;;;;;;11.49;50.89;101188.09;4999375;27;100010;-70
2024/02/28 09:28:53;;;;;;;;;;;;;;;11.50;51.12;101185.13;4976903;27;114725;-70
2024/02/28 09:31:19;;;;;;;;;;;;;;;11.51;51.22;101185.94;4998528;27;102717;-71
2024/02/28 09:33:46;;;;;;;;;;;;;;;11.53;51.04;101191.91;4985530;27;98173;-70
2024/02/28 09:36:12;;;;;;;;;;;;;;;11.54;51.01;101190.81;4999576;27;99293;-71
2024/02/28 09:38:39;;;;;;;;;;;;;;;11.55;51.11;101195.16;4988527;27;98499;-70
2024/02/28 09:41:04;;;;;;;;;;;;;;;11.57;51.08;101197.59;4964082;27;97984;-71
2024/02/28 09:43:31;;;;;;;;;;;;;;;11.58;51.05;101194.63;4994976;27;128101;-70
2024/02/28 09:46:03;;;;;;;;;;;;;;;11.58;51.13;101196.53;5009467;27;98259;-70
2024/02/28 09:48:29;;;;;;;;;;;;;;;11.61;51.02;101193.31;4982256;27;97872;-71
2024/02/28 09:50:58;;;;;;;;;;;;;;;11.62;50.81;101201.16;4969007;27;98109;-70
2024/02/28 09:53:25;;;;;;;;;;;;;;;11.66;51.23;101198.75;4984353;27;105532;-71
2024/02/28 09:55:51;;;;;;;;;;;;;;;11.67;51.02;101205.78;4998224;27;101147;-69
2024/02/28 09:58:18;;;;;;;;;;;;;;;11.69;51.01;101211.75;4981994;27;98541;-69
2024/02/28 10:00:44;;;;;;;;;;;;;;;11.71;51.11;101209.59;4984973;27;98082;-70
2024/02/28 10:03:11;;;;;;;;;;;;;;;11.72;51.06;101208.56;4999348;27;100011;-70
2024/02/28 10:05:38;;;;;;;;;;;;;;;11.74;51.01;101220.72;4989367;27;97974;-71
2024/02/28 10:08:05;;;;;;;;;;;;;;;11.74;51.11;101219.91;5000401;27;98366;-70
2024/02/28 10:10:31;;;;;;;;;;;;;;;11.73;51.04;101224.47;4978516;27;97985;-70
2024/02/28 10:12:58;;;;;;;;;;;;;;;11.72;51.07;101232.84;4999666;27;102114;-69
2024/02/28 10:15:27;;;;;;;;;;;;;;;11.70;50.89;101235.78;4981062;27;98216;-70
2024/02/28 10:17:53;;;;;;;;;;;;;;;11.71;51.09;101247.41;4984004;27;98383;-69
2024/02/28 10:20:19;;;;;;;;;;;;;;;11.70;51.07;101248.50;4976945;27;128912;-70
2024/02/28 10:22:45;;;;;;;;;;;;;;;11.71;51.05;101258.22;4979878;27;107105;-69
2024/02/28 10:25:11;;;;;;;;;;;;;;;11.71;51.10;101258.22;4997528;27;98370;-71
2024/02/28 10:27:37;;;;;;;;;;;;;;;11.71;51.17;101264.47;5013409;27;118070;-70
2024/02/28 10:30:07;;;;;;;;;;;;;;;11.71;50.91;101266.31;4986777;27;108759;-71
2024/02/28 10:32:36;;;;;;;;;;;;;;;11.70;51.00;101270.09;5000468;27;98091;-69
2024/02/28 10:35:03;;;;;;;;;;;;;;;11.69;51.19;101279.28;4992069;27;98140;-69
2024/02/28 10:37:32;;;;;;;;;;;;;;;11.70;51.01;101272.78;4983835;27;114804;-71
2024/02/28 10:39:58;;;;;;;;;;;;;;;11.72;51.12;101273.38;4995995;27;98137;-69
2024/02/28 10:42:29;;;;;;;;;;;;;;;11.74;51.08;101271.22;4987571;27;98290;-69
2024/02/28 10:44:55;;;;;;;;;;;;;;;11.77;51.24;101268.00;4999016;27;98062;-70
2024/02/28 10:47:21;;;;;;;;;;;;;;;11.77;51.07;101266.13;4994492;27;117871;-69
2024/02/28 10:49:47;;;;;;;;;;;;;;;11.80;51.03;101264.81;4995139;27;99689;-71
2024/02/28 10:52:13;;;;;;;;;;;;;;;11.82;50.93;101268.03;4994317;27;98279;-70
2024/02/28 10:54:43;;;;;;;;;;;;;;;11.84;51.04;101274.06;4993945;27;98098;-70
2024/02/28 10:57:12;;;;;;;;;;;;;;;11.86;51.04;101271.91;4985114;27;99351;-71
2024/02/28 10:59:39;;;;;;;;;;;;;;;11.83;51.15;101264.31;5004276;27;112209;-69
2024/02/28 11:02:05;;;;;;;;;;;;;;;11.84;51.02;101262.44;4979202;27;98258;-70
2024/02/28 11:04:32;;;;;;;;;;;;;;;11.84;51.12;101274.06;4982659;27;112634;-69
2024/02/28 11:06:58;;;;;;;;;;;;;;;11.86;51.12;101266.50;4999960;27;98197;-70
2024/02/28 11:09:28;;;;;;;;;;;;;;;11.90;51.00;101274.91;4999786;27;98604;-70
2024/02/28 11:11:55;;;;;;;;;;;;;;;11.91;51.06;101269.25;4956456;27;98152;-69
2024/02/28 11:14:25;;;;;;;;;;;;;;;11.95;51.06;101270.38;4998863;27;99746;-70
2024/02/28 11:17:04;;;;;;;;;;;;;;;11.99;51.01;101276.09;4979137;27;98094;-70
2024/02/28 11:19:34;;;;;;;;;;;;;;;12.01;50.93;101280.13;4997336;27;98474;-69
2024/02/28 11:22:01;;;;;;;;;;;;;;;12.01;51.11;101287.44;4988397;27;99492;-69
2024/02/28 11:24:31;;;;;;;;;;;;;;;12.00;50.90;101277.72;4981580;27;98173;-69
2024/02/28 11:26:57;;;;;;;;;;;;;;;11.98;50.96;101277.94;4988390;27;98102;-70
2024/02/28 11:29:28;;;;;;;;;;;;;;;11.98;51.08;101287.94;4998085;27;98906;-70
2024/02/28 11:31:54;;;;;;;;;;;;;;;12.00;51.10;101293.91;4987296;27;98356;-71
2024/02/28 11:34:20;;;;;;;;;;;;;;;11.99;51.42;101284.19;4980911;27;98388;-71
2024/02/28 11:36:49;;;;;;;;;;;;;;;12.01;50.96;101288.25;4999689;27;98370;-71
2024/02/28 11:39:16;;;;;;;;;;;;;;;12.04;51.05;101292.34;5008522;27;98738;-70
2024/02/28 11:41:46;;;;;;;;;;;;;;;12.01;51.04;101296.34;4985366;27;98389;-69
2024/02/28 11:44:13;;;;;;;;;;;;;;;12.04;51.01;101300.44;4982191;27;97954;-71
2024/02/28 11:46:44;;;;;;;;;;;;;;;12.06;51.20;101300.97;4979817;27;98062;-70
2024/02/28 11:49:10;;;;;;;;;;;;;;;12.08;51.01;101306.16;5003682;27;97976;-70
2024/02/28 11:51:36;;;;;;;;;;;;;;;12.08;50.96;101308.84;5002170;27;102154;-69
2024/02/28 11:54:02;;;;;;;;;;;;;;;12.09;51.06;101315.88;4998508;27;97998;-70
2024/02/28 11:56:28;;;;;;;;;;;;;;;12.12;51.10;101320.78;4983622;27;98122;-69
2024/02/28 11:58:55;;;;;;;;;;;;;;;12.13;51.10;101317.81;4984280;27;128128;-71
2024/02/28 12:01:43;;;;;;;;;;;;;;;12.13;50.97;101314.28;4976405;27;98098;-70
2024/02/28 12:04:10;;;;;;;;;;;;;;;12.12;51.08;101315.38;4983375;27;98156;-70
2024/02/28 12:06:36;;;;;;;;;;;;;;;12.09;51.04;101322.09;5002990;27;98208;-71
2024/02/28 12:09:04;;;;;;;;;;;;;;;12.09;51.19;101324.00;4994743;27;124724;-69
2024/02/28 12:11:30;;;;;;;;;;;;;;;12.07;51.13;101316.16;4981820;27;99284;-70
2024/02/28 12:13:56;;;;;;;;;;;;;;;12.04;51.09;101322.88;4996783;27;98445;-70
2024/02/28 12:16:24;;;;;;;;;;;;;;;12.03;51.13;101326.66;4997742;27;98727;-70
2024/02/28 12:18:50;;;;;;;;;;;;;;;12.01;51.25;101322.56;4981517;27;99934;-69
2024/02/28 12:21:16;;;;;;;;;;;;;;;11.97;51.04;101321.44;4991514;27;131377;-69
2024/02/28 12:23:41;;;;;;;;;;;;;;;11.96;51.35;101317.13;4988754;27;127025;-69
2024/02/28 12:26:07;;;;;;;;;;;;;;;11.94;51.38;101316.53;4982298;27;102244;-71
2024/02/28 12:28:34;;;;;;;;;;;;;;;11.93;51.29;101321.13;4984081;27;125572;-71